createdAt,value
2023-04-29T00:00:58.911Z,12.20
2023-04-29T00:01:58.849Z,12.60
2023-04-29T00:02:59.008Z,10.50
2023-04-29T00:03:58.912Z,10.70
2023-04-29T00:04:59.046Z,10.80
2023-04-29T00:05:58.930Z,11.20
2023-04-29T00:06:58.744Z,11.50
2023-04-29T00:07:58.712Z,10.60
2023-04-29T00:08:58.720Z,10.50
2023-04-29T00:09:58.727Z,10.50
2023-04-29T00:10:58.701Z,10.40
2023-04-29T00:11:58.665Z,11.00
2023-04-29T00:12:58.683Z,11.50
2023-04-29T00:13:58.683Z,9.40
2023-04-29T00:14:58.657Z,9.20
2023-04-29T00:15:58.642Z,9.90
2023-04-29T00:16:58.752Z,9.60
2023-04-29T00:17:58.667Z,12.50
2023-04-29T00:18:58.611Z,13.60
2023-04-29T00:19:58.573Z,14.00
2023-04-29T00:20:58.593Z,12.80
2023-04-29T00:21:58.570Z,12.40
2023-04-29T00:22:58.555Z,12.40
2023-04-29T00:23:58.538Z,12.90
2023-04-29T00:24:58.520Z,11.40
2023-04-29T00:25:58.505Z,13.00
2023-04-29T00:26:58.520Z,12.20
2023-04-29T00:27:58.495Z,14.80
2023-04-29T00:28:58.473Z,12.30
2023-04-29T00:29:58.453Z,11.60
2023-04-29T00:30:58.465Z,12.70
2023-04-29T00:31:58.428Z,13.80
2023-04-29T00:32:58.544Z,12.00
2023-04-29T00:33:58.408Z,12.70
2023-04-29T00:34:58.422Z,13.40
2023-04-29T00:35:58.402Z,13.40
2023-04-29T00:36:58.385Z,13.80
2023-04-29T00:37:58.459Z,13.00
2023-04-29T00:38:58.353Z,12.90
2023-04-29T00:39:58.341Z,12.50
2023-04-29T00:40:58.315Z,13.90
2023-04-29T00:41:58.340Z,12.50
2023-04-29T00:42:58.278Z,13.10
2023-04-29T00:43:58.312Z,13.60
2023-04-29T00:44:58.422Z,12.00
2023-04-29T00:45:58.313Z,11.80
2023-04-29T00:46:58.275Z,11.70
2023-04-29T00:47:58.245Z,12.70
2023-04-29T00:48:58.281Z,12.60
2023-04-29T00:49:58.222Z,13.20
2023-04-29T00:50:58.205Z,11.70
2023-04-29T00:51:58.218Z,12.70
2023-04-29T00:52:58.177Z,12.90
2023-04-29T00:53:58.199Z,12.70
2023-04-29T00:54:58.143Z,13.80
2023-04-29T00:55:58.576Z,15.50
2023-04-29T00:56:58.117Z,12.30
2023-04-29T00:57:58.127Z,11.70
2023-04-29T00:58:58.103Z,12.60
2023-04-29T00:59:58.125Z,13.40
2023-04-29T01:00:58.086Z,12.90
2023-04-29T01:01:58.217Z,13.60
2023-04-29T01:02:58.092Z,13.00
2023-04-29T01:03:58.282Z,12.20
2023-04-29T01:04:58.491Z,12.70
2023-04-29T01:05:58.052Z,15.60
2023-04-29T01:06:58.010Z,12.60
2023-04-29T01:07:57.984Z,14.00
2023-04-29T01:08:57.990Z,13.80
2023-04-29T01:09:57.969Z,14.60
2023-04-29T01:10:57.977Z,13.90
2023-04-29T01:11:57.946Z,14.80
2023-04-29T01:12:57.931Z,16.00
2023-04-29T01:13:57.965Z,13.30
2023-04-29T01:14:57.918Z,13.80
2023-04-29T01:15:57.997Z,13.80
2023-04-29T01:16:57.888Z,13.40
2023-04-29T01:17:57.882Z,15.20
2023-04-29T01:18:57.869Z,13.00
2023-04-29T01:19:57.879Z,15.70
2023-04-29T01:20:57.852Z,14.00
2023-04-29T01:21:57.822Z,14.50
2023-04-29T01:22:57.840Z,14.70
2023-04-29T01:23:57.807Z,15.10
2023-04-29T01:24:57.798Z,13.70
2023-04-29T01:25:57.786Z,14.70
2023-04-29T01:26:57.789Z,16.50
2023-04-29T01:27:57.758Z,14.10
2023-04-29T01:28:57.924Z,15.90
2023-04-29T01:29:57.756Z,16.30
2023-04-29T01:30:57.757Z,12.80
2023-04-29T01:31:58.001Z,11.30
2023-04-29T01:32:57.734Z,11.60
2023-04-29T01:33:57.687Z,12.20
2023-04-29T01:34:57.682Z,11.60
2023-04-29T01:35:57.665Z,11.70
2023-04-29T01:36:57.652Z,11.40
2023-04-29T01:37:57.652Z,11.90
2023-04-29T01:38:57.626Z,11.60
2023-04-29T01:39:57.597Z,11.20
2023-04-29T01:40:57.629Z,11.40
2023-04-29T01:41:57.632Z,11.40
2023-04-29T01:42:57.601Z,12.60
2023-04-29T01:43:57.597Z,12.80
2023-04-29T01:44:57.586Z,11.40
2023-04-29T01:45:57.557Z,12.20
2023-04-29T01:46:57.700Z,11.40
2023-04-29T01:47:57.605Z,12.60
2023-04-29T01:48:57.505Z,13.40
2023-04-29T01:49:57.488Z,11.80
2023-04-29T01:50:58.282Z,11.90
2023-04-29T01:51:57.491Z,13.10
2023-04-29T01:52:57.469Z,11.00
2023-04-29T01:53:57.455Z,11.30
2023-04-29T01:54:57.465Z,11.90
2023-04-29T01:55:57.469Z,11.90
2023-04-29T01:56:57.439Z,11.60
2023-04-29T01:57:57.402Z,12.00
2023-04-29T01:58:57.388Z,12.10
2023-04-29T01:59:58.113Z,11.60
2023-04-29T02:00:57.504Z,11.50
2023-04-29T02:01:57.357Z,12.10
2023-04-29T02:02:57.435Z,13.50
2023-04-29T02:03:57.436Z,14.80
2023-04-29T02:04:57.566Z,15.60
2023-04-29T02:05:57.315Z,15.20
2023-04-29T02:06:57.320Z,16.00
2023-04-29T02:07:57.304Z,16.20
2023-04-29T02:08:57.253Z,19.60
2023-04-29T02:09:57.269Z,17.10
2023-04-29T02:10:57.260Z,19.10
2023-04-29T02:11:57.247Z,17.70
2023-04-29T02:12:57.223Z,18.80
2023-04-29T02:13:57.220Z,21.70
2023-04-29T02:14:57.190Z,21.90
2023-04-29T02:15:57.289Z,21.50
2023-04-29T02:16:57.188Z,22.20
2023-04-29T02:17:57.160Z,21.80
2023-04-29T02:18:57.170Z,23.60
2023-04-29T02:19:57.139Z,22.70
2023-04-29T02:20:57.116Z,23.80
2023-04-29T02:21:57.126Z,23.00
2023-04-29T02:22:57.246Z,23.90
2023-04-29T02:23:57.104Z,24.40
2023-04-29T02:24:57.090Z,23.60
2023-04-29T02:25:57.246Z,22.50
2023-04-29T02:26:57.105Z,23.50
2023-04-29T02:27:57.033Z,25.00
2023-04-29T02:28:57.041Z,23.40
2023-04-29T02:29:57.012Z,24.80
2023-04-29T02:30:57.006Z,23.90
2023-04-29T02:31:57.037Z,24.50
2023-04-29T02:32:57.014Z,26.00
2023-04-29T02:33:56.970Z,25.60
2023-04-29T02:34:56.985Z,25.80
2023-04-29T02:35:56.944Z,26.20
2023-04-29T02:36:56.957Z,26.60
2023-04-29T02:37:56.960Z,26.20
2023-04-29T02:38:56.935Z,28.80
2023-04-29T02:39:56.912Z,28.20
2023-04-29T02:40:56.899Z,28.80
2023-04-29T02:41:56.881Z,30.90
2023-04-29T02:43:21.669Z,26.90
2023-04-29T02:43:56.991Z,30.70
2023-04-29T02:44:56.844Z,31.20
2023-04-29T02:45:56.846Z,31.70
2023-04-29T02:46:56.810Z,31.50
2023-04-29T02:47:56.857Z,32.40
2023-04-29T02:48:56.844Z,31.60
2023-04-29T02:49:56.765Z,33.40
2023-04-29T02:50:56.762Z,32.20
2023-04-29T02:51:56.750Z,34.70
2023-04-29T02:52:56.738Z,35.40
2023-04-29T02:53:56.759Z,34.00
2023-04-29T02:54:56.724Z,35.40
2023-04-29T02:55:56.713Z,32.20
2023-04-29T02:56:56.684Z,34.00
2023-04-29T02:57:56.703Z,33.00
2023-04-29T02:58:56.660Z,35.00
2023-04-29T02:59:56.709Z,35.90
2023-04-29T03:00:56.715Z,34.30
2023-04-29T03:01:56.628Z,34.40
2023-04-29T03:02:56.735Z,34.90
2023-04-29T03:03:56.876Z,34.60
2023-04-29T03:04:56.642Z,33.70
2023-04-29T03:05:56.579Z,31.80
2023-04-29T03:06:56.566Z,32.50
2023-04-29T03:07:56.548Z,33.00
2023-04-29T03:08:56.554Z,33.80
2023-04-29T03:09:56.537Z,32.50
2023-04-29T03:10:56.551Z,33.20
2023-04-29T03:11:56.508Z,32.50
2023-04-29T03:12:56.522Z,32.10
2023-04-29T03:13:56.505Z,33.00
2023-04-29T03:14:56.491Z,34.10
2023-04-29T03:15:56.524Z,33.60
2023-04-29T03:16:56.578Z,35.50
2023-04-29T03:17:56.452Z,35.70
2023-04-29T03:18:56.443Z,32.00
2023-04-29T03:19:56.423Z,33.30
2023-04-29T03:20:56.444Z,32.10
2023-04-29T03:21:56.416Z,32.20
2023-04-29T03:22:56.369Z,31.90
2023-04-29T03:23:56.370Z,32.90
2023-04-29T03:24:56.354Z,33.20
2023-04-29T03:25:56.405Z,32.20
2023-04-29T03:26:56.398Z,30.10
2023-04-29T03:27:56.319Z,33.10
2023-04-29T03:28:56.316Z,31.40
2023-04-29T03:29:56.293Z,31.10
2023-04-29T03:30:56.316Z,32.70
2023-04-29T03:31:56.313Z,33.60
2023-04-29T03:32:56.317Z,34.70
2023-04-29T03:33:56.415Z,34.40
2023-04-29T03:34:56.245Z,32.40
2023-04-29T03:35:56.246Z,33.60
2023-04-29T03:36:56.233Z,32.10
2023-04-29T03:37:56.243Z,34.00
2023-04-29T03:38:56.195Z,34.60
2023-04-29T03:39:56.168Z,31.90
2023-04-29T03:40:56.188Z,35.40
2023-04-29T03:41:56.190Z,33.00
2023-04-29T03:42:56.178Z,31.50
2023-04-29T03:43:56.126Z,30.20
2023-04-29T03:44:56.210Z,29.70
2023-04-29T03:45:56.173Z,32.20
2023-04-29T03:46:56.106Z,29.50
2023-04-29T03:47:56.178Z,30.30
2023-04-29T03:48:56.099Z,31.20
2023-04-29T03:49:56.385Z,29.00
2023-04-29T03:50:56.055Z,29.10
2023-04-29T03:51:56.108Z,30.30
2023-04-29T03:52:56.048Z,31.60
2023-04-29T03:53:56.049Z,31.40
2023-04-29T03:54:55.989Z,32.60
2023-04-29T03:55:55.971Z,31.40
2023-04-29T03:56:56.486Z,33.10
2023-04-29T03:57:55.944Z,33.70
2023-04-29T03:58:56.235Z,36.40
2023-04-29T03:59:55.923Z,38.60
2023-04-29T04:00:55.907Z,39.00
2023-04-29T04:01:56.015Z,38.30
2023-04-29T04:02:56.055Z,38.10
2023-04-29T04:03:55.982Z,36.60
2023-04-29T04:04:56.026Z,37.40
2023-04-29T04:05:55.860Z,38.60
2023-04-29T04:06:55.871Z,35.90
2023-04-29T04:07:55.829Z,39.60
2023-04-29T04:08:55.809Z,40.80
2023-04-29T04:09:55.858Z,42.00
2023-04-29T04:10:55.798Z,44.00
2023-04-29T04:11:55.769Z,44.90
2023-04-29T04:12:55.769Z,40.50
2023-04-29T04:13:55.740Z,44.60
2023-04-29T04:14:55.754Z,43.40
2023-04-29T04:15:55.740Z,42.10
2023-04-29T04:16:55.704Z,42.50
2023-04-29T04:17:55.742Z,40.00
2023-04-29T04:18:55.699Z,40.20
2023-04-29T04:19:55.684Z,38.70
2023-04-29T04:20:55.660Z,42.20
2023-04-29T04:21:56.653Z,36.10
2023-04-29T04:22:55.642Z,31.50
2023-04-29T04:23:55.619Z,26.40
2023-04-29T04:24:55.773Z,27.90
2023-04-29T04:25:55.597Z,25.50
2023-04-29T04:26:55.591Z,27.10
2023-04-29T04:27:55.591Z,28.80
2023-04-29T04:28:55.577Z,24.00
2023-04-29T04:29:55.609Z,24.50
2023-04-29T04:30:55.557Z,24.20
2023-04-29T04:31:55.552Z,24.70
2023-04-29T04:32:55.545Z,24.30
2023-04-29T04:33:55.513Z,24.70
2023-04-29T04:34:55.527Z,25.80
2023-04-29T04:35:55.511Z,23.70
2023-04-29T04:36:55.472Z,22.40
2023-04-29T04:37:55.473Z,21.70
2023-04-29T04:38:55.443Z,26.60
2023-04-29T04:39:55.416Z,25.90
2023-04-29T04:40:55.433Z,24.70
2023-04-29T04:41:55.406Z,24.60
2023-04-29T04:42:55.389Z,25.50
2023-04-29T04:43:55.379Z,23.20
2023-04-29T04:44:56.097Z,26.90
2023-04-29T04:45:55.441Z,26.90
2023-04-29T04:46:55.366Z,25.10
2023-04-29T04:47:55.398Z,25.60
2023-04-29T04:48:55.342Z,26.50
2023-04-29T04:49:55.480Z,26.00
2023-04-29T04:50:55.331Z,26.30
2023-04-29T04:51:55.345Z,25.00
2023-04-29T04:52:55.307Z,24.60
2023-04-29T04:53:55.945Z,23.40
2023-04-29T04:54:55.257Z,25.20
2023-04-29T04:55:55.258Z,22.70
2023-04-29T04:56:55.277Z,52.60
2023-04-29T04:57:55.204Z,29.20
2023-04-29T04:58:55.196Z,167.00
2023-04-29T04:59:55.167Z,39.30
2023-04-29T05:00:55.208Z,59.70
2023-04-29T05:01:55.277Z,37.50
2023-04-29T05:02:55.297Z,27.30
2023-04-29T05:03:55.198Z,83.80
2023-04-29T05:04:55.177Z,34.40
2023-04-29T05:05:55.105Z,65.30
2023-04-29T05:06:55.090Z,31.40
2023-04-29T05:07:55.114Z,55.60
2023-04-29T05:08:55.068Z,50.20
2023-04-29T05:09:55.063Z,26.00
2023-04-29T05:10:55.061Z,22.90
2023-04-29T05:11:55.041Z,24.40
2023-04-29T05:12:55.075Z,23.40
2023-04-29T05:13:55.019Z,23.10
2023-04-29T05:14:55.011Z,26.70
2023-04-29T05:15:55.016Z,26.40
2023-04-29T05:16:55.016Z,26.50
2023-04-29T05:17:55.015Z,24.40
2023-04-29T05:18:55.018Z,27.10
2023-04-29T05:19:54.953Z,28.10
2023-04-29T05:20:54.913Z,30.40
2023-04-29T05:21:54.921Z,27.50
2023-04-29T05:22:54.898Z,28.60
2023-04-29T05:23:54.915Z,27.80
2023-04-29T05:24:54.877Z,29.40
2023-04-29T05:25:54.881Z,30.10
2023-04-29T05:26:54.858Z,30.20
2023-04-29T05:27:54.832Z,31.70
2023-04-29T05:28:54.837Z,33.30
2023-04-29T05:29:54.960Z,33.00
2023-04-29T05:30:54.813Z,33.10
2023-04-29T05:31:54.791Z,34.40
2023-04-29T05:32:54.889Z,33.20
2023-04-29T05:33:54.774Z,37.00
2023-04-29T05:34:54.775Z,33.40
2023-04-29T05:35:54.745Z,32.90
2023-04-29T05:36:54.739Z,34.90
2023-04-29T05:37:54.728Z,35.30
2023-04-29T05:38:54.714Z,35.50
2023-04-29T05:39:54.945Z,36.80
2023-04-29T05:40:54.710Z,35.10
2023-04-29T05:41:54.678Z,39.30
2023-04-29T05:42:54.671Z,36.60
2023-04-29T05:43:54.672Z,38.00
2023-04-29T05:44:54.685Z,34.90
2023-04-29T05:45:54.688Z,35.90
2023-04-29T05:46:54.624Z,32.80
2023-04-29T05:47:54.624Z,36.80
2023-04-29T05:48:54.586Z,30.90
2023-04-29T05:49:54.816Z,34.00
2023-04-29T05:50:54.586Z,34.60
2023-04-29T05:51:54.540Z,32.90
2023-04-29T05:52:54.540Z,31.70
2023-04-29T05:53:54.552Z,34.50
2023-04-29T05:54:54.512Z,35.30
2023-04-29T05:55:54.526Z,32.40
2023-04-29T05:56:54.491Z,32.80
2023-04-29T05:57:54.483Z,29.00
2023-04-29T05:58:54.482Z,30.90
2023-04-29T05:59:54.607Z,32.00
2023-04-29T06:00:54.474Z,35.40
2023-04-29T06:01:54.434Z,35.40
2023-04-29T06:02:58.838Z,36.60
2023-04-29T06:03:55.686Z,32.40
2023-04-29T06:04:54.593Z,34.10
2023-04-29T06:05:54.871Z,34.10
2023-04-29T06:06:54.390Z,33.40
2023-04-29T06:07:54.362Z,33.40
2023-04-29T06:08:54.341Z,34.90
2023-04-29T06:09:54.534Z,34.10
2023-04-29T06:10:54.352Z,35.20
2023-04-29T06:11:54.301Z,35.30
2023-04-29T06:12:54.305Z,32.60
2023-04-29T06:13:54.277Z,36.70
2023-04-29T06:14:54.271Z,32.70
2023-04-29T06:15:54.320Z,32.80
2023-04-29T06:16:54.251Z,36.60
2023-04-29T06:17:54.261Z,36.50
2023-04-29T06:18:54.221Z,39.70
2023-04-29T06:19:54.360Z,39.30
2023-04-29T06:20:54.203Z,38.50
2023-04-29T06:21:54.208Z,33.80
2023-04-29T06:22:54.168Z,37.00
2023-04-29T06:23:54.168Z,39.00
2023-04-29T06:24:54.159Z,34.80
2023-04-29T06:25:54.139Z,34.50
2023-04-29T06:26:54.145Z,37.10
2023-04-29T06:27:54.107Z,34.20
2023-04-29T06:28:54.102Z,36.40
2023-04-29T06:29:54.463Z,36.30
2023-04-29T06:30:54.093Z,36.40
2023-04-29T06:31:54.177Z,35.60
2023-04-29T06:32:54.072Z,35.40
2023-04-29T06:33:54.053Z,33.70
2023-04-29T06:34:54.034Z,36.00
2023-04-29T06:35:54.047Z,35.70
2023-04-29T06:36:54.040Z,33.20
2023-04-29T06:37:53.999Z,35.50
2023-04-29T06:38:53.994Z,36.20
2023-04-29T06:39:54.210Z,37.50
2023-04-29T06:40:53.953Z,35.90
2023-04-29T06:41:53.990Z,38.00
2023-04-29T06:42:53.929Z,38.60
2023-04-29T06:43:54.190Z,33.40
2023-04-29T06:44:53.931Z,35.40
2023-04-29T06:45:53.907Z,38.50
2023-04-29T06:46:53.994Z,35.30
2023-04-29T06:47:53.943Z,33.80
2023-04-29T06:48:53.856Z,34.40
2023-04-29T06:49:54.107Z,37.60
2023-04-29T06:50:53.838Z,36.20
2023-04-29T06:51:53.820Z,41.20
2023-04-29T06:52:54.050Z,39.80
2023-04-29T06:53:53.798Z,35.10
2023-04-29T06:54:53.784Z,35.20
2023-04-29T06:55:53.776Z,32.60
2023-04-29T06:56:53.776Z,33.90
2023-04-29T06:57:53.792Z,35.70
2023-04-29T06:58:53.729Z,38.60
2023-04-29T06:59:54.016Z,40.30
2023-04-29T07:00:53.786Z,42.50
2023-04-29T07:01:53.753Z,42.60
2023-04-29T07:02:53.860Z,38.50
2023-04-29T07:03:53.927Z,36.60
2023-04-29T07:04:53.732Z,31.90
2023-04-29T07:05:53.671Z,33.10
2023-04-29T07:06:53.644Z,31.40
2023-04-29T07:07:53.633Z,26.70
2023-04-29T07:08:56.265Z,29.40
2023-04-29T07:09:53.815Z,30.60
2023-04-29T07:10:53.594Z,29.60
2023-04-29T07:11:53.599Z,32.60
2023-04-29T07:12:53.573Z,36.60
2023-04-29T07:13:53.616Z,34.20
2023-04-29T07:14:53.586Z,35.50
2023-04-29T07:15:53.539Z,28.10
2023-04-29T07:16:53.530Z,28.80
2023-04-29T07:17:53.615Z,30.40
2023-04-29T07:18:53.507Z,31.00
2023-04-29T07:19:53.838Z,31.50
2023-04-29T07:20:53.499Z,29.80
2023-04-29T08:14:47.606Z,18.80
2023-04-29T08:15:48.753Z,17.00
2023-04-29T08:16:48.601Z,15.70
2023-04-29T08:17:48.740Z,17.90
2023-04-29T08:18:48.775Z,18.20
2023-04-29T09:50:56.800Z,16.90
2023-04-29T09:51:58.132Z,25.20
2023-04-29T09:52:58.473Z,24.60
2023-04-29T09:53:57.782Z,26.30
2023-04-29T09:54:57.767Z,28.10
2023-04-29T09:55:58.191Z,28.30
2023-04-29T09:56:57.872Z,27.00
2023-04-29T09:57:59.298Z,27.90
2023-04-29T09:58:57.698Z,28.70
2023-04-29T09:59:57.715Z,29.10
2023-04-29T10:01:04.373Z,28.60
2023-04-29T10:01:57.741Z,27.40
2023-04-29T10:02:57.709Z,27.00
2023-04-29T10:03:57.840Z,28.20
2023-04-29T10:04:57.978Z,27.70
2023-04-29T10:05:57.610Z,27.90
2023-04-29T10:06:57.564Z,29.50
2023-04-29T10:07:57.579Z,28.70
2023-04-29T10:08:57.604Z,31.20
2023-04-29T10:09:57.551Z,28.60
2023-04-29T10:10:57.680Z,27.80
2023-04-29T10:11:58.536Z,27.70
2023-04-29T10:12:57.533Z,27.40
2023-04-29T10:13:57.507Z,27.30
2023-04-29T10:14:57.496Z,27.50
2023-04-29T10:15:57.548Z,26.90
2023-04-29T10:16:57.469Z,28.80
2023-04-29T10:17:57.445Z,30.80
2023-04-29T10:18:57.552Z,29.70
2023-04-29T10:19:57.405Z,29.90
2023-04-29T10:20:57.415Z,28.80
2023-04-29T10:21:57.437Z,30.10
2023-04-29T10:22:57.394Z,31.00
2023-04-29T10:23:57.386Z,32.70
2023-04-29T10:24:57.417Z,32.00
2023-04-29T10:25:57.400Z,31.40
2023-04-29T10:26:57.389Z,29.40
2023-04-29T10:27:57.566Z,30.20
2023-04-29T10:28:57.321Z,30.40
2023-04-29T10:29:57.332Z,31.80
2023-04-29T10:30:57.398Z,32.20
2023-04-29T10:31:57.281Z,31.90
2023-04-29T10:32:57.308Z,29.60
2023-04-29T10:33:57.276Z,30.90
2023-04-29T10:34:57.273Z,30.40
2023-04-29T10:35:57.222Z,30.50
2023-04-29T10:36:57.220Z,28.90
2023-04-29T10:37:57.212Z,27.10
2023-04-29T10:38:57.367Z,29.80
2023-04-29T10:39:57.225Z,29.40
2023-04-29T10:40:57.212Z,32.10
2023-04-29T10:41:57.168Z,30.90
2023-04-29T10:42:57.209Z,30.00
2023-04-29T10:43:57.148Z,30.80
2023-04-29T10:44:57.129Z,31.50
2023-04-29T10:45:57.121Z,29.00
2023-04-29T10:46:57.139Z,30.10
2023-04-29T10:47:57.167Z,28.60
2023-04-29T10:48:57.085Z,28.80
2023-04-29T10:49:57.066Z,30.50
2023-04-29T10:50:57.065Z,30.90
2023-04-29T10:51:57.048Z,28.90
2023-04-29T10:52:57.043Z,32.30
2023-04-29T10:53:57.084Z,28.60
2023-04-29T10:54:57.016Z,30.00
2023-04-29T10:55:57.017Z,29.20
2023-04-29T10:56:56.999Z,30.10
2023-04-29T10:57:56.989Z,29.70
2023-04-29T10:58:57.002Z,27.50
2023-04-29T10:59:56.980Z,30.20
2023-04-29T11:00:56.997Z,29.70
2023-04-29T11:01:56.929Z,31.10
2023-04-29T11:02:57.026Z,31.50
2023-04-29T11:03:57.072Z,28.50
2023-04-29T11:04:57.157Z,29.00
2023-04-29T11:05:57.037Z,27.90
2023-04-29T11:06:56.877Z,27.50
2023-04-29T11:07:56.911Z,28.20
2023-04-29T11:08:56.889Z,26.20
2023-04-29T11:09:56.827Z,28.60
2023-04-29T11:10:56.841Z,29.30
2023-04-29T11:11:57.463Z,30.00
2023-04-29T11:12:56.803Z,28.70
2023-04-29T11:13:56.796Z,30.90
2023-04-29T11:14:56.821Z,31.20
2023-04-29T11:15:56.779Z,29.30
2023-04-29T11:16:56.944Z,28.80
2023-04-29T11:17:56.892Z,29.30
2023-04-29T11:18:56.795Z,29.00
2023-04-29T11:19:57.744Z,30.00
2023-04-29T11:20:56.746Z,27.40
2023-04-29T11:21:56.795Z,29.30
2023-04-29T11:22:56.702Z,28.30
2023-04-29T11:23:56.697Z,29.50
2023-04-29T11:24:57.157Z,28.10
2023-04-29T11:25:56.652Z,27.40
2023-04-29T11:26:56.660Z,29.20
2023-04-29T11:27:57.415Z,27.70
2023-04-29T11:28:56.646Z,27.30
2023-04-29T11:29:56.681Z,26.40
2023-04-29T11:30:57.651Z,27.30
2023-04-29T11:31:56.601Z,27.50
2023-04-29T11:32:56.667Z,26.30
2023-04-29T11:33:56.957Z,29.20
2023-04-29T11:34:56.775Z,26.80
2023-04-29T11:35:56.596Z,26.10
2023-04-29T11:36:56.543Z,25.90
2023-04-29T11:37:56.528Z,26.60
2023-04-29T11:38:56.526Z,25.70
2023-04-29T11:39:56.493Z,26.30
2023-04-29T11:40:56.507Z,26.40
2023-04-29T11:41:56.469Z,27.50
2023-04-29T11:42:56.854Z,26.70
2023-04-29T11:43:56.461Z,26.60
2023-04-29T11:44:56.468Z,26.40
2023-04-29T11:45:56.464Z,27.40
2023-04-29T11:46:56.436Z,26.70
2023-04-29T11:47:56.436Z,26.70
2023-04-29T11:48:56.381Z,26.40
2023-04-29T11:49:56.374Z,27.30
2023-04-29T11:50:56.339Z,26.80
2023-04-29T11:51:56.390Z,26.50
2023-04-29T11:52:56.342Z,25.70
2023-04-29T11:53:56.324Z,24.40
2023-04-29T11:54:56.343Z,27.10
2023-04-29T11:55:56.322Z,26.70
2023-04-29T11:56:56.336Z,25.40
2023-04-29T11:57:56.271Z,25.30
2023-04-29T11:58:56.265Z,26.20
2023-04-29T11:59:56.250Z,25.20
2023-04-29T12:00:56.268Z,25.30
2023-04-29T12:05:44.478Z,23.40
2023-04-29T12:06:44.351Z,25.10
2023-04-29T12:07:43.824Z,23.70
2023-04-29T12:08:43.774Z,23.30
2023-04-29T12:09:43.717Z,23.10
2023-04-29T12:10:43.779Z,20.90
2023-04-29T12:11:43.711Z,22.70
2023-04-29T12:12:43.718Z,22.20
2023-04-29T12:13:43.713Z,21.60
2023-04-29T12:14:43.720Z,21.00
2023-04-29T12:15:43.669Z,23.20
2023-04-29T12:16:43.645Z,23.80
2023-04-29T12:17:43.721Z,23.10
2023-04-29T12:18:43.754Z,22.80
2023-04-29T12:19:43.632Z,23.70
2023-04-29T12:20:43.634Z,25.00
2023-04-29T12:21:43.599Z,23.40
2023-04-29T12:22:43.582Z,23.40
2023-04-29T12:23:43.667Z,22.20
2023-04-29T12:24:43.553Z,26.30
2023-04-29T12:25:43.635Z,24.20
2023-04-29T12:26:43.531Z,22.90
2023-04-29T12:27:43.587Z,24.10
2023-04-29T12:28:43.522Z,24.10
2023-04-29T12:29:43.481Z,24.30
2023-04-29T12:30:43.608Z,24.50
2023-04-29T12:31:43.576Z,25.50
2023-04-29T12:32:43.479Z,28.90
2023-04-29T12:33:43.498Z,29.50
2023-04-29T12:34:43.418Z,25.60
2023-04-29T12:35:43.483Z,29.50
2023-04-29T12:36:43.552Z,28.70
2023-04-29T12:37:43.545Z,24.90
2023-04-29T12:38:43.476Z,24.20
2023-04-29T12:39:43.559Z,26.60
2023-04-29T12:40:43.444Z,24.70
2023-04-29T12:41:43.452Z,24.60
2023-04-29T12:42:43.407Z,26.10
2023-04-29T12:43:43.521Z,24.00
2023-04-29T12:44:43.400Z,23.50
2023-04-29T12:45:43.295Z,25.40
2023-04-29T12:46:43.369Z,23.30
2023-04-29T12:47:43.338Z,24.90
2023-04-29T12:48:43.271Z,22.50
2023-04-29T12:49:43.331Z,22.80
2023-04-29T12:50:43.229Z,22.90
2023-04-29T12:51:43.204Z,21.50
2023-04-29T12:52:43.612Z,23.00
2023-04-29T12:55:05.813Z,22.90
2023-04-29T12:56:05.764Z,23.70
2023-04-29T12:57:05.905Z,22.90
2023-04-29T12:58:05.682Z,22.40
2023-04-29T12:59:05.671Z,23.80
2023-04-29T13:00:05.659Z,24.00
2023-04-29T13:01:05.684Z,21.10
2023-04-29T13:02:05.701Z,22.40
2023-04-29T13:03:05.853Z,22.10
2023-04-29T13:04:06.475Z,24.60
2023-04-29T13:05:05.731Z,23.30
2023-04-29T13:06:05.583Z,21.50
2023-04-29T13:07:05.946Z,23.40
2023-04-29T13:08:05.555Z,21.50
2023-04-29T13:09:05.798Z,21.50
2023-04-29T13:10:05.565Z,22.80
2023-04-29T13:11:07.483Z,20.00
2023-04-29T13:12:06.645Z,20.30
2023-04-29T13:13:06.619Z,19.90
2023-04-29T13:16:20.662Z,19.90
2023-04-29T13:17:20.616Z,21.20
2023-04-29T13:18:20.685Z,20.70
2023-04-29T13:19:38.385Z,20.30
2023-04-29T13:20:21.819Z,19.70
2023-04-29T13:21:20.436Z,21.90
2023-04-29T13:25:56.762Z,17.80
2023-04-29T13:26:56.710Z,19.50
2023-04-29T13:27:56.703Z,19.30
2023-04-29T13:28:56.830Z,16.90
2023-04-29T13:29:56.630Z,24.60
2023-04-29T13:30:56.651Z,50.70
2023-04-29T13:31:56.646Z,49.70
2023-04-29T13:32:59.948Z,22.50
2023-04-29T13:35:32.601Z,37.10
2023-04-29T13:36:32.650Z,32.20
2023-04-29T13:37:32.561Z,22.70
2023-04-29T13:38:32.792Z,18.60
2023-04-29T13:39:32.691Z,15.20
2023-04-29T13:40:37.369Z,19.10
2023-04-29T13:41:34.932Z,17.20
2023-04-29T13:43:38.308Z,17.40
2023-04-29T13:44:42.455Z,17.50
2023-04-29T13:45:32.452Z,17.00
2023-04-29T13:46:32.525Z,16.10
2023-04-29T13:47:32.568Z,17.60
2023-04-29T13:52:20.091Z,18.00
2023-04-29T13:54:05.720Z,17.20
2023-04-29T13:59:08.878Z,15.20
2023-04-29T13:59:39.987Z,14.80
2023-04-29T14:01:04.720Z,15.60
2023-04-29T14:02:33.519Z,16.90
2023-04-29T14:03:34.759Z,16.60
2023-04-29T14:04:32.392Z,16.30
2023-04-29T14:05:32.455Z,18.10
2023-04-29T14:06:32.197Z,17.50
2023-04-29T14:07:32.195Z,18.20
2023-04-29T14:08:32.166Z,18.80
2023-04-29T14:09:32.217Z,17.80
2023-04-29T14:10:32.142Z,17.20
2023-04-29T14:11:32.151Z,17.30
2023-04-29T14:12:33.110Z,17.90
2023-04-29T14:13:32.846Z,17.70
2023-04-29T14:14:32.717Z,17.90
2023-04-29T14:15:32.436Z,18.00
2023-04-29T14:16:35.642Z,18.50
2023-04-29T14:17:32.137Z,16.50
2023-04-29T14:18:32.073Z,17.50
2023-04-29T14:19:32.071Z,19.00
2023-04-29T14:20:32.144Z,16.80
2023-04-29T14:21:32.055Z,17.30
2023-04-29T14:22:33.248Z,17.40
2023-04-29T14:23:33.222Z,17.90
2023-04-29T14:24:33.220Z,16.60
2023-04-29T14:25:33.999Z,17.40
2023-04-29T14:26:33.176Z,16.00
2023-04-29T14:27:33.136Z,15.90
2023-04-29T14:28:33.120Z,16.10
2023-04-29T14:29:33.174Z,16.50
2023-04-29T14:30:33.648Z,15.40
2023-04-29T14:31:33.163Z,15.60
2023-04-29T14:32:33.195Z,15.10
2023-04-29T14:33:33.061Z,15.80
2023-04-29T14:34:33.027Z,14.80
2023-04-29T14:35:33.040Z,15.00
2023-04-29T14:36:33.037Z,14.90
2023-04-29T14:37:33.035Z,14.60
2023-04-29T14:38:32.990Z,15.60
2023-04-29T14:39:32.963Z,16.40
2023-04-29T14:40:32.936Z,19.90
2023-04-29T14:41:32.950Z,19.00
2023-04-29T14:42:32.935Z,19.90
2023-04-29T14:43:32.971Z,18.10
2023-04-29T14:44:32.899Z,17.30
2023-04-29T14:45:32.938Z,16.50
2023-04-29T14:46:32.979Z,15.70
2023-04-29T14:47:32.880Z,17.10
2023-04-29T14:48:32.908Z,17.80
2023-04-29T14:49:32.893Z,17.70
2023-04-29T14:50:32.829Z,16.90
2023-04-29T14:51:32.878Z,16.00
2023-04-29T14:52:32.845Z,17.40
2023-04-29T14:53:32.818Z,17.30
2023-04-29T14:54:32.775Z,16.70
2023-04-29T14:55:32.758Z,16.80
2023-04-29T14:56:32.760Z,16.50
2023-04-29T14:57:32.815Z,16.30
2023-04-29T14:58:32.752Z,17.00
2023-04-29T14:59:32.745Z,16.50
2023-04-29T15:00:32.781Z,16.60
2023-04-29T15:01:32.748Z,16.90
2023-04-29T15:02:32.756Z,17.80
2023-04-29T15:03:32.764Z,17.10
2023-04-29T15:04:32.775Z,17.00
2023-04-29T15:05:32.709Z,17.70
2023-04-29T15:06:32.702Z,15.90
2023-04-29T15:07:32.717Z,16.30
2023-04-29T15:08:32.715Z,15.70
2023-04-29T15:09:32.625Z,18.40
2023-04-29T15:10:32.614Z,16.30
2023-04-29T15:11:32.651Z,15.80
2023-04-29T15:12:32.601Z,17.50
2023-04-29T15:13:32.616Z,16.20
2023-04-29T15:14:32.552Z,16.10
2023-04-29T15:15:32.559Z,16.70
2023-04-29T15:16:32.549Z,16.90
2023-04-29T15:17:32.592Z,16.20
2023-04-29T15:18:32.923Z,17.00
2023-04-29T15:19:32.526Z,16.40
2023-04-29T15:20:32.563Z,17.70
2023-04-29T15:21:32.516Z,15.40
2023-04-29T15:22:32.483Z,16.80
2023-04-29T15:23:32.550Z,15.90
2023-04-29T15:24:32.497Z,17.20
2023-04-29T15:25:32.429Z,17.40
2023-04-29T15:26:32.440Z,18.00
2023-04-29T15:27:32.763Z,16.60
2023-04-29T15:28:32.467Z,16.90
2023-04-29T15:29:32.483Z,17.00
2023-04-29T15:30:32.427Z,16.40
2023-04-29T15:31:33.465Z,18.60
2023-04-29T15:32:32.460Z,19.90
2023-04-29T15:33:32.320Z,19.10
2023-04-29T15:34:32.355Z,17.40
2023-04-29T15:35:32.353Z,21.20
2023-04-29T15:36:32.329Z,19.50
2023-04-29T15:37:32.298Z,22.20
2023-04-29T15:38:32.287Z,22.60
2023-04-29T15:39:32.327Z,21.90